createdAt,value
2022-08-26T00:02:12.974Z,100022.50
2022-08-26T00:07:18.544Z,100018.31
2022-08-26T00:12:27.856Z,100018.61
2022-08-26T00:17:41.723Z,100016.08
2022-08-26T00:22:47.278Z,100022.23
2022-08-26T00:27:53.878Z,100020.70
2022-08-26T00:33:01.876Z,100021.25
2022-08-26T00:38:09.160Z,100022.88
2022-08-26T00:43:15.572Z,100028.38
2022-08-26T00:48:22.961Z,100027.16
2022-08-26T00:53:30.914Z,100030.05
2022-08-26T00:58:38.354Z,100030.61
2022-08-26T01:03:48.295Z,100032.94
2022-08-26T01:08:53.882Z,100032.11
2022-08-26T01:14:02.818Z,100026.08
2022-08-26T01:19:13.765Z,100022.17
2022-08-26T01:24:20.234Z,100033.65
2022-08-26T01:29:26.267Z,100033.13
2022-08-26T01:34:33.255Z,100031.08
2022-08-26T01:39:40.237Z,100029.77
2022-08-26T01:44:48.240Z,100035.52
2022-08-26T01:49:54.922Z,100034.39
2022-08-26T01:55:00.731Z,100031.41
2022-08-26T02:00:08.681Z,100038.20
2022-08-26T02:05:19.250Z,100033.35
2022-08-26T02:10:24.595Z,100035.75
2022-08-26T02:15:31.430Z,100034.42
2022-08-26T02:20:37.533Z,100032.85
2022-08-26T02:25:47.857Z,100033.52
2022-08-26T02:30:55.551Z,100028.98
2022-08-26T02:36:01.697Z,100033.00
2022-08-26T02:41:09.321Z,100031.11
2022-08-26T02:46:28.005Z,100034.64
2022-08-26T02:51:36.033Z,100040.42
2022-08-26T02:56:41.833Z,100040.85
2022-08-26T03:01:47.701Z,100042.96
2022-08-26T03:06:53.208Z,100045.14
2022-08-26T03:12:01.396Z,100041.92
2022-08-26T03:17:07.832Z,100032.67
2022-08-26T03:22:15.997Z,100039.89
2022-08-26T03:27:22.059Z,100040.37
2022-08-26T03:32:27.583Z,100042.34
2022-08-26T03:37:34.225Z,100041.97
2022-08-26T03:42:39.913Z,100037.71
2022-08-26T03:47:46.352Z,100041.18
2022-08-26T03:52:53.909Z,100035.91
2022-08-26T03:58:01.033Z,100041.13
2022-08-26T04:03:09.786Z,100038.90
2022-08-26T04:08:15.832Z,100040.84
2022-08-26T04:13:21.968Z,100042.21
2022-08-26T04:18:32.653Z,100042.07
2022-08-26T04:23:47.056Z,100051.24
2022-08-26T04:28:54.922Z,100056.86
2022-08-26T04:34:00.675Z,100060.87
2022-08-26T04:39:07.009Z,100066.79
2022-08-26T04:44:13.274Z,100066.95
2022-08-26T04:49:18.855Z,100073.14
2022-08-26T04:54:26.749Z,100078.56
2022-08-26T04:59:34.970Z,100083.02
2022-08-26T05:04:44.758Z,100083.82
2022-08-26T05:09:50.454Z,100084.11
2022-08-26T05:14:56.347Z,100089.83
2022-08-26T05:20:01.944Z,100089.83
2022-08-26T05:25:08.420Z,100096.45
2022-08-26T05:30:14.758Z,100093.64
2022-08-26T05:35:21.185Z,100090.20
2022-08-26T05:40:28.605Z,100079.45
2022-08-26T05:45:34.280Z,100073.64
2022-08-26T05:50:40.837Z,100078.17
2022-08-26T05:55:49.538Z,100076.41
2022-08-26T06:01:01.378Z,100072.73
2022-08-26T06:06:09.970Z,100074.48
2022-08-26T06:11:18.654Z,100073.85
2022-08-26T06:16:25.238Z,100071.93
2022-08-26T06:21:32.424Z,100066.78
2022-08-26T06:26:39.019Z,100062.63
2022-08-26T06:31:48.266Z,100065.88
2022-08-26T06:36:54.029Z,100069.53
2022-08-26T06:41:59.337Z,100065.32
2022-08-26T06:47:05.232Z,100061.82
2022-08-26T06:52:10.755Z,100062.73
2022-08-26T06:57:16.868Z,100069.75
2022-08-26T07:02:22.475Z,100066.81
2022-08-26T07:07:27.778Z,100064.55
2022-08-26T07:12:33.426Z,100068.55
2022-08-26T07:17:39.195Z,100067.19
2022-08-26T07:22:45.793Z,100066.52
2022-08-26T07:27:54.307Z,100061.77
2022-08-26T07:33:00.904Z,100060.90
2022-08-26T07:38:06.421Z,100058.45
2022-08-26T07:43:12.286Z,100052.52
2022-08-26T07:48:17.982Z,100053.29
2022-08-26T07:53:27.472Z,100046.83
2022-08-26T07:58:33.318Z,100040.58
2022-08-26T08:03:39.152Z,100040.85
2022-08-26T08:08:45.055Z,100041.73
2022-08-26T08:13:56.543Z,100041.73
2022-08-26T08:19:02.459Z,100042.74
2022-08-26T08:24:10.413Z,100036.02
2022-08-26T08:29:15.819Z,100035.44
2022-08-26T08:34:21.839Z,100029.65
2022-08-26T08:39:27.939Z,100020.67
2022-08-26T08:44:33.490Z,100028.84
2022-08-26T08:49:39.136Z,100028.27
2022-08-26T08:54:44.662Z,100023.88
2022-08-26T08:59:56.570Z,100022.27
2022-08-26T09:05:07.990Z,100019.98
2022-08-26T09:10:29.241Z,100016.00
2022-08-26T09:15:37.929Z,100016.02
2022-08-26T09:20:48.441Z,100011.38
2022-08-26T09:31:12.889Z,100011.84
2022-08-26T09:36:24.795Z,100012.36
2022-08-26T09:41:32.147Z,100006.39
2022-08-26T09:51:50.113Z,99993.70
2022-08-26T09:57:11.910Z,99989.00
2022-08-26T10:02:34.823Z,99988.02
2022-08-26T10:07:43.489Z,99985.44
2022-08-26T10:12:54.271Z,99986.91
2022-08-26T10:18:05.998Z,99986.67
2022-08-26T10:23:14.049Z,99985.08
2022-08-26T10:28:24.658Z,99983.60
2022-08-26T10:33:31.288Z,99981.11
2022-08-26T10:38:40.223Z,99977.90
2022-08-26T10:43:54.051Z,99977.77
2022-08-26T10:49:01.032Z,99976.27
2022-08-26T10:54:11.805Z,99974.16
2022-08-26T10:59:22.967Z,99971.59
2022-08-26T11:04:38.405Z,99967.48
2022-08-26T11:09:47.687Z,99968.67
2022-08-26T11:14:59.135Z,99963.59
2022-08-26T11:20:09.144Z,99955.20
2022-08-26T11:25:20.190Z,99953.84
2022-08-26T11:30:57.507Z,99947.58
2022-08-26T11:36:12.062Z,99945.67
2022-08-26T11:41:23.228Z,99944.13
2022-08-26T11:46:30.872Z,99940.17
2022-08-26T11:51:40.880Z,99935.94
2022-08-26T11:56:48.836Z,99931.23
2022-08-26T12:01:56.239Z,99929.52
2022-08-26T12:07:03.748Z,99923.66
2022-08-26T12:12:14.091Z,99919.02
2022-08-26T12:17:22.535Z,99914.91
2022-08-26T12:22:29.195Z,99913.05
2022-08-26T12:27:35.568Z,99906.04
2022-08-26T12:32:57.554Z,99901.82
2022-08-26T12:38:05.814Z,99898.42
2022-08-26T12:43:12.572Z,99887.98
2022-08-26T12:48:24.504Z,99882.40
2022-08-26T12:53:31.761Z,99881.52
2022-08-26T12:58:38.094Z,99875.99
2022-08-26T13:03:45.257Z,99868.39
2022-08-26T13:08:51.970Z,99865.56
2022-08-26T13:14:00.757Z,99860.22
2022-08-26T13:19:10.582Z,99853.79
2022-08-26T13:24:17.709Z,99853.08
2022-08-26T13:29:23.271Z,99853.89
2022-08-26T13:34:30.328Z,99849.66
2022-08-26T13:39:36.100Z,99841.83
2022-08-26T13:44:44.039Z,99840.05
2022-08-26T13:49:49.506Z,99835.43
2022-08-26T13:54:55.497Z,99836.55
2022-08-26T14:00:01.359Z,99825.71
2022-08-26T14:05:07.807Z,99825.23
2022-08-26T14:10:14.008Z,99821.10
2022-08-26T14:15:19.989Z,99815.27
2022-08-26T14:20:27.983Z,99810.57
2022-08-26T14:25:34.707Z,99810.55
2022-08-26T14:30:42.008Z,99807.82
2022-08-26T14:35:48.946Z,99804.52
2022-08-26T14:40:55.095Z,99799.41
2022-08-26T14:46:00.521Z,99794.04
2022-08-26T14:51:06.322Z,99788.58
2022-08-26T14:56:16.511Z,99790.17
2022-08-26T15:01:22.465Z,99779.92
2022-08-26T15:06:28.506Z,99779.06
2022-08-26T15:11:34.488Z,99774.78
2022-08-26T15:16:40.555Z,99773.81
2022-08-26T15:21:47.644Z,99766.08
2022-08-26T15:26:53.431Z,99763.44
2022-08-26T15:31:59.575Z,99761.52
2022-08-26T15:37:06.177Z,99760.75
2022-08-26T15:42:12.377Z,99763.20
2022-08-26T15:47:19.142Z,99760.66
2022-08-26T15:52:24.647Z,99757.23
2022-08-26T15:57:30.640Z,99763.48
2022-08-26T16:02:36.386Z,99759.33
2022-08-26T16:07:42.447Z,99759.84
2022-08-26T16:12:47.953Z,99759.99
2022-08-26T16:17:53.731Z,99756.38
2022-08-26T16:22:59.329Z,99752.01
2022-08-26T16:28:06.112Z,99751.52
2022-08-26T16:33:24.966Z,99753.52
2022-08-26T16:38:35.420Z,99753.05
2022-08-26T16:43:41.038Z,99751.98
2022-08-26T16:48:46.917Z,99750.13
2022-08-26T16:53:53.886Z,99751.03
2022-08-26T16:58:59.779Z,99754.38
2022-08-26T17:04:05.728Z,99756.91
2022-08-26T17:09:11.527Z,99759.94
2022-08-26T17:14:17.102Z,99759.58
2022-08-26T17:19:23.298Z,99757.98
2022-08-26T17:24:29.274Z,99759.53
2022-08-26T17:29:34.931Z,99765.98
2022-08-26T17:34:40.797Z,99764.69
2022-08-26T17:39:46.278Z,99760.67
2022-08-26T17:44:52.390Z,99759.96
2022-08-26T17:49:58.066Z,99761.86
2022-08-26T17:55:03.849Z,99766.17
2022-08-26T18:00:12.506Z,99770.52
2022-08-26T18:05:18.728Z,99769.98
2022-08-26T18:10:25.906Z,99771.15
2022-08-26T18:15:31.967Z,99769.13
2022-08-26T18:20:39.515Z,99774.27
2022-08-26T18:25:45.919Z,99781.10
2022-08-26T18:30:52.146Z,99780.33
2022-08-26T18:35:57.857Z,99782.67
2022-08-26T18:41:05.598Z,99782.91
2022-08-26T18:46:12.197Z,99782.19
2022-08-26T18:51:20.036Z,99784.27
2022-08-26T18:56:25.997Z,99786.16
2022-08-26T19:01:32.673Z,99784.48
2022-08-26T19:06:39.861Z,99790.23
2022-08-26T19:11:45.905Z,99789.95
2022-08-26T19:16:52.878Z,99793.27
2022-08-26T19:21:58.522Z,99797.36
2022-08-26T19:27:04.279Z,99799.54
2022-08-26T19:32:09.931Z,99806.44
2022-08-26T19:37:15.480Z,99813.91
2022-08-26T19:42:20.963Z,99813.15
2022-08-26T19:47:26.329Z,99812.70
2022-08-26T19:52:31.939Z,99812.39
2022-08-26T19:57:39.669Z,99814.55
2022-08-26T20:02:46.044Z,99816.04
2022-08-26T20:07:51.967Z,99814.67
2022-08-26T20:12:57.826Z,99816.73
2022-08-26T20:18:03.748Z,99819.80
2022-08-26T20:23:09.574Z,99816.92
2022-08-26T20:28:14.955Z,99819.25
2022-08-26T20:33:21.298Z,99818.67
2022-08-26T20:38:27.370Z,99821.39
2022-08-26T20:43:32.824Z,99821.58
2022-08-26T20:48:38.181Z,99820.15
2022-08-26T20:53:44.702Z,99816.35
2022-08-26T20:58:50.124Z,99822.16
2022-08-26T21:03:55.935Z,99822.52
2022-08-26T21:09:01.885Z,99822.58
2022-08-26T21:14:16.620Z,99822.42
2022-08-26T21:19:23.584Z,99818.26
2022-08-26T21:24:29.326Z,99811.58
2022-08-26T21:29:35.045Z,99811.22
2022-08-26T21:34:40.337Z,99813.57
2022-08-26T21:39:45.689Z,99812.92
2022-08-26T21:44:52.862Z,99805.91
2022-08-26T21:49:58.553Z,99802.73
2022-08-26T21:55:08.989Z,99798.20
2022-08-26T22:00:17.060Z,99793.91
2022-08-26T22:05:23.081Z,99789.95
2022-08-26T22:10:28.608Z,99789.73
2022-08-26T22:15:36.071Z,99790.52
2022-08-26T22:20:41.838Z,99793.36
2022-08-26T22:25:47.634Z,99792.11
2022-08-26T22:30:53.207Z,99789.40
2022-08-26T22:35:59.373Z,99793.91
2022-08-26T22:41:08.320Z,99791.14
2022-08-26T22:46:17.822Z,99793.98
2022-08-26T22:51:24.141Z,99793.34
2022-08-26T22:56:30.368Z,99789.87
2022-08-26T23:01:38.055Z,99788.75
2022-08-26T23:06:47.450Z,99794.40
2022-08-26T23:11:56.413Z,99791.58
2022-08-26T23:17:02.764Z,99787.41
2022-08-26T23:22:08.889Z,99777.87
2022-08-26T23:27:15.018Z,99785.29
2022-08-26T23:32:20.694Z,99787.07
2022-08-26T23:37:26.496Z,99783.27
2022-08-26T23:42:32.885Z,99779.30
2022-08-26T23:47:38.856Z,99778.60
2022-08-26T23:53:02.090Z,99772.59
2022-08-26T23:58:08.219Z,99768.27
